Time;durP1;ratioP1;P1;durP2;ratioP2;P2;SDS_P1;SDS_P2;PMS_P1;PMS_P2;Temp;Humidity;BMP_temperature;BMP_pressure;BME280_temperature;BME280_humidity;BME280_pressure;Samples;Min_cycle;Max_cycle;Signal;HPM_P1;HPM_P2
2024/03/29 00:00:34;;;;;;;1.80;1.02;;;;;;;;;;5002770;28;20058;-81
2024/03/29 00:03:00;;;;;;;1.52;0.82;;;;;;;;;;4986803;28;20066;-82
2024/03/29 00:05:26;;;;;;;2.30;0.95;;;;;;;;;;5002374;28;20042;-82
2024/03/29 00:07:51;;;;;;;8.50;1.13;;;;;;;;;;4967955;28;20057;-81
2024/03/29 00:10:17;;;;;;;2.90;1.23;;;;;;;;;;4981133;28;20055;-82
2024/03/29 00:12:42;;;;;;;1.65;1.00;;;;;;;;;;5001816;28;20051;-82
2024/03/29 00:15:08;;;;;;;3.47;1.40;;;;;;;;;;4982998;28;20042;-81
2024/03/29 00:17:33;;;;;;;5.20;2.55;;;;;;;;;;4988976;28;20130;-81
2024/03/29 00:19:59;;;;;;;3.00;1.50;;;;;;;;;;4997209;28;20050;-81
2024/03/29 00:22:24;;;;;;;1.75;0.90;;;;;;;;;;4976405;28;20524;-81
2024/03/29 00:24:50;;;;;;;2.78;1.15;;;;;;;;;;4983133;28;20069;-80
2024/03/29 00:27:15;;;;;;;2.13;0.98;;;;;;;;;;4969454;28;20058;-82
2024/03/29 00:29:42;;;;;;;2.55;1.08;;;;;;;;;;4990526;28;20058;-82
2024/03/29 00:32:08;;;;;;;2.15;0.80;;;;;;;;;;4980259;28;20061;-83
2024/03/29 00:34:33;;;;;;;1.05;0.70;;;;;;;;;;4998022;28;20039;-83
2024/03/29 00:36:59;;;;;;;3.28;0.85;;;;;;;;;;5007950;28;20034;-83
2024/03/29 00:39:24;;;;;;;1.80;1.00;;;;;;;;;;4976823;28;20082;-84
2024/03/29 00:41:50;;;;;;;2.75;1.40;;;;;;;;;;4989281;28;20054;-84
2024/03/29 00:44:16;;;;;;;3.67;0.90;;;;;;;;;;4990544;28;20046;-83
2024/03/29 00:46:41;;;;;;;3.78;1.00;;;;;;;;;;4994676;28;20065;-84
2024/03/29 00:49:07;;;;;;;2.35;0.77;;;;;;;;;;4979884;28;20145;-82
2024/03/29 00:51:32;;;;;;;0.88;0.57;;;;;;;;;;4998502;28;20081;-83
2024/03/29 00:53:58;;;;;;;2.55;0.95;;;;;;;;;;4983045;28;20054;-82
2024/03/29 00:56:23;;;;;;;0.65;0.65;;;;;;;;;;4993293;28;20112;-83
2024/03/29 00:58:49;;;;;;;2.13;0.70;;;;;;;;;;5010986;28;20428;-83
2024/03/29 01:01:14;;;;;;;3.28;1.15;;;;;;;;;;4962400;28;20133;-84
2024/03/29 01:03:40;;;;;;;1.48;0.52;;;;;;;;;;4961911;28;20086;-83
2024/03/29 01:06:05;;;;;;;2.00;0.82;;;;;;;;;;4983860;28;20062;-83
2024/03/29 01:08:31;;;;;;;6.40;0.80;;;;;;;;;;4994539;28;20061;-84
2024/03/29 01:10:56;;;;;;;1.70;0.73;;;;;;;;;;4990315;28;20416;-83
2024/03/29 01:13:22;;;;;;;2.72;0.70;;;;;;;;;;5019083;28;20038;-84
2024/03/29 01:15:47;;;;;;;0.90;0.68;;;;;;;;;;4997539;28;20049;-82
2024/03/29 01:18:13;;;;;;;2.47;0.70;;;;;;;;;;4998121;28;20054;-82
2024/03/29 01:20:38;;;;;;;1.95;0.88;;;;;;;;;;4997552;28;20118;-84
2024/03/29 01:23:04;;;;;;;1.00;0.77;;;;;;;;;;5025508;28;20540;-82
2024/03/29 01:25:29;;;;;;;1.20;0.60;;;;;;;;;;4994417;28;20726;-83
2024/03/29 01:27:55;;;;;;;3.33;1.35;;;;;;;;;;4978686;28;20046;-83
2024/03/29 01:30:21;;;;;;;2.33;0.68;;;;;;;;;;4994226;28;20129;-83
2024/03/29 01:32:47;;;;;;;0.82;0.50;;;;;;;;;;4967823;28;20485;-83
2024/03/29 01:35:12;;;;;;;1.13;0.65;;;;;;;;;;4998781;28;20081;-82
2024/03/29 01:37:39;;;;;;;0.65;0.50;;;;;;;;;;4959637;28;20505;-83
2024/03/29 01:40:04;;;;;;;1.75;0.63;;;;;;;;;;4959383;28;20054;-83
2024/03/29 01:42:30;;;;;;;0.60;0.52;;;;;;;;;;4959153;28;20136;-83
2024/03/29 01:44:55;;;;;;;0.75;0.52;;;;;;;;;;4974712;28;20047;-83
2024/03/29 01:47:21;;;;;;;1.48;0.70;;;;;;;;;;4958415;28;20050;-83
2024/03/29 01:49:46;;;;;;;0.70;0.70;;;;;;;;;;4986344;28;20046;-83
2024/03/29 01:52:13;;;;;;;2.25;0.50;;;;;;;;;;4975306;28;20089;-83
2024/03/29 01:54:38;;;;;;;1.88;0.60;;;;;;;;;;4979256;28;20130;-82
2024/03/29 01:57:04;;;;;;;1.85;0.85;;;;;;;;;;4969494;28;20054;-83
2024/03/29 01:59:30;;;;;;;3.03;0.88;;;;;;;;;;4974759;28;20170;-83
2024/03/29 02:01:55;;;;;;;4.22;0.90;;;;;;;;;;4978345;28;20112;-81
2024/03/29 02:04:21;;;;;;;3.88;0.82;;;;;;;;;;4960398;28;20062;-80
2024/03/29 02:06:46;;;;;;;1.92;0.50;;;;;;;;;;5001432;28;20104;-81
2024/03/29 02:09:12;;;;;;;1.15;0.60;;;;;;;;;;4996703;28;20061;-81
2024/03/29 02:11:37;;;;;;;1.85;0.60;;;;;;;;;;4996772;28;20081;-81
2024/03/29 02:14:05;;;;;;;1.75;0.90;;;;;;;;;;5017031;28;20054;-81
2024/03/29 02:16:31;;;;;;;1.15;0.40;;;;;;;;;;4999118;28;20066;-81
2024/03/29 02:18:56;;;;;;;0.93;0.60;;;;;;;;;;5001617;28;20046;-81
2024/03/29 02:21:22;;;;;;;0.77;0.47;;;;;;;;;;5018231;28;20053;-81
2024/03/29 02:23:51;;;;;;;0.77;0.60;;;;;;;;;;5016921;28;20065;-82
2024/03/29 02:26:17;;;;;;;0.73;0.50;;;;;;;;;;4997033;28;20046;-80
2024/03/29 02:28:42;;;;;;;0.40;0.38;;;;;;;;;;5002940;28;20106;-81
2024/03/29 02:31:08;;;;;;;1.35;0.68;;;;;;;;;;5006577;28;20113;-80
2024/03/29 02:33:33;;;;;;;1.40;0.50;;;;;;;;;;4983503;28;20054;-82
2024/03/29 02:35:59;;;;;;;0.70;0.40;;;;;;;;;;4979711;28;20054;-83
2024/03/29 02:38:25;;;;;;;0.73;0.60;;;;;;;;;;4981512;28;20093;-81
2024/03/29 02:40:50;;;;;;;2.15;0.70;;;;;;;;;;5020643;28;20053;-82
2024/03/29 02:43:16;;;;;;;3.00;0.50;;;;;;;;;;4984615;28;20057;-82
2024/03/29 02:45:41;;;;;;;3.08;0.40;;;;;;;;;;4984332;28;20105;-83
2024/03/29 02:48:07;;;;;;;0.70;0.40;;;;;;;;;;4980997;28;20054;-83
2024/03/29 02:50:33;;;;;;;1.67;0.50;;;;;;;;;;4983590;28;20050;-83
2024/03/29 02:52:58;;;;;;;0.98;0.30;;;;;;;;;;4983618;28;20054;-84
2024/03/29 02:55:24;;;;;;;0.50;0.40;;;;;;;;;;4985876;28;20069;-85
2024/03/29 02:57:49;;;;;;;0.93;0.40;;;;;;;;;;5016686;28;20066;-84
2024/03/29 03:00:15;;;;;;;1.13;0.57;;;;;;;;;;4998074;28;20061;-81
2024/03/29 03:02:41;;;;;;;0.95;0.30;;;;;;;;;;4982255;28;20113;-81
2024/03/29 03:05:06;;;;;;;0.30;0.28;;;;;;;;;;4998805;28;20057;-80
2024/03/29 03:13:01;;;;;;;1.17;0.40;;;;;;;;;;4994207;28;20080;-80
2024/03/29 03:15:26;;;;;;;2.10;0.50;;;;;;;;;;4996994;28;20515;-81
2024/03/29 03:17:52;;;;;;;1.38;0.30;;;;;;;;;;4981409;28;20484;-80
2024/03/29 03:20:17;;;;;;;1.65;0.60;;;;;;;;;;4997884;28;20054;-81
2024/03/29 03:22:43;;;;;;;0.40;0.20;;;;;;;;;;4998007;28;20172;-81
2024/03/29 03:25:08;;;;;;;0.52;0.40;;;;;;;;;;4997999;28;20103;-82
2024/03/29 03:27:34;;;;;;;0.30;0.20;;;;;;;;;;4981999;28;20587;-81
2024/03/29 03:30:00;;;;;;;0.32;0.30;;;;;;;;;;4998403;28;20062;-82
2024/03/29 03:32:25;;;;;;;0.88;0.30;;;;;;;;;;4998613;28;20061;-82
2024/03/29 03:34:51;;;;;;;1.27;0.40;;;;;;;;;;4997960;28;20053;-81
2024/03/29 03:37:16;;;;;;;0.95;0.60;;;;;;;;;;5010047;28;20061;-82
2024/03/29 03:39:42;;;;;;;1.98;0.30;;;;;;;;;;4998067;28;20104;-81
2024/03/29 03:42:07;;;;;;;0.68;0.40;;;;;;;;;;4984215;28;20054;-81
2024/03/29 03:44:33;;;;;;;0.70;0.40;;;;;;;;;;4999892;28;20483;-82
2024/03/29 03:46:58;;;;;;;2.55;1.08;;;;;;;;;;4984494;28;20050;-80
2024/03/29 03:49:24;;;;;;;1.45;0.50;;;;;;;;;;4984363;28;20046;-81
2024/03/29 03:51:49;;;;;;;1.08;0.40;;;;;;;;;;5000862;28;20053;-81
2024/03/29 03:54:15;;;;;;;0.40;0.30;;;;;;;;;;4983866;28;20057;-79
2024/03/29 03:56:40;;;;;;;0.52;0.38;;;;;;;;;;4981647;28;20057;-79
2024/03/29 03:59:06;;;;;;;0.82;0.40;;;;;;;;;;5015233;28;20077;-79
2024/03/29 04:01:34;;;;;;;1.10;0.68;;;;;;;;;;4999789;28;20057;-83
2024/03/29 04:03:59;;;;;;;0.68;0.45;;;;;;;;;;4996184;28;20057;-80
2024/03/29 04:06:25;;;;;;;1.33;0.60;;;;;;;;;;4970662;28;20065;-83
2024/03/29 04:08:51;;;;;;;1.40;0.70;;;;;;;;;;4998970;28;20093;-82
2024/03/29 04:11:16;;;;;;;2.70;0.98;;;;;;;;;;4965206;28;20138;-81
2024/03/29 04:13:42;;;;;;;2.72;0.55;;;;;;;;;;4995099;28;20424;-82
2024/03/29 04:16:08;;;;;;;1.27;0.80;;;;;;;;;;4963884;28;20436;-81
2024/03/29 04:18:33;;;;;;;1.50;0.65;;;;;;;;;;4994679;28;20062;-83
2024/03/29 04:20:59;;;;;;;1.17;0.70;;;;;;;;;;4965711;28;20536;-83
2024/03/29 04:23:25;;;;;;;1.05;0.60;;;;;;;;;;4977377;28;20069;-83
2024/03/29 04:25:54;;;;;;;1.30;0.50;;;;;;;;;;4960141;28;20785;-83
2024/03/29 04:28:19;;;;;;;0.68;0.55;;;;;;;;;;4961145;28;20050;-82
2024/03/29 04:30:52;;;;;;;1.45;0.45;;;;;;;;;;4977464;28;20129;-82
2024/03/29 04:33:17;;;;;;;0.30;0.22;;;;;;;;;;4961299;28;20046;-85
2024/03/29 04:35:52;;;;;;;0.35;0.30;;;;;;;;;;4978389;28;20088;-82
2024/03/29 04:38:17;;;;;;;0.90;0.40;;;;;;;;;;4979958;28;20062;-88
2024/03/29 04:40:43;;;;;;;0.98;0.35;;;;;;;;;;4965022;28;20050;-86
2024/03/29 04:43:08;;;;;;;0.43;0.30;;;;;;;;;;4977943;28;20085;-82
2024/03/29 04:45:34;;;;;;;0.85;0.35;;;;;;;;;;4977676;28;20644;-81
2024/03/29 04:48:00;;;;;;;1.27;0.30;;;;;;;;;;4962865;28;20444;-83
2024/03/29 04:50:25;;;;;;;0.68;0.30;;;;;;;;;;4978827;28;20394;-82
2024/03/29 04:52:51;;;;;;;1.23;0.60;;;;;;;;;;4988330;28;20046;-81
2024/03/29 04:55:16;;;;;;;0.30;0.30;;;;;;;;;;4983426;28;20559;-81
2024/03/29 04:57:42;;;;;;;0.80;0.60;;;;;;;;;;4977656;28;20526;-81
2024/03/29 05:00:08;;;;;;;0.20;0.20;;;;;;;;;;5002376;28;20042;-80
2024/03/29 05:02:34;;;;;;;0.90;0.30;;;;;;;;;;4992621;28;20070;-81
2024/03/29 05:05:00;;;;;;;0.30;0.30;;;;;;;;;;4992305;28;20536;-80
2024/03/29 05:07:25;;;;;;;0.93;0.35;;;;;;;;;;4994563;28;20491;-80
2024/03/29 05:09:51;;;;;;;0.30;0.30;;;;;;;;;;4987401;28;20064;-81
2024/03/29 05:12:16;;;;;;;0.40;0.22;;;;;;;;;;4992625;28;20491;-82
2024/03/29 05:14:42;;;;;;;5.07;0.80;;;;;;;;;;5008838;28;20054;-82
2024/03/29 05:17:08;;;;;;;1.08;0.30;;;;;;;;;;4977298;28;20058;-82
2024/03/29 05:19:33;;;;;;;0.60;0.50;;;;;;;;;;4961296;28;20500;-82
2024/03/29 05:22:00;;;;;;;0.22;0.20;;;;;;;;;;4969274;28;20050;-82
2024/03/29 05:24:26;;;;;;;0.30;0.30;;;;;;;;;;4961410;28;20062;-82
2024/03/29 05:26:51;;;;;;;0.40;0.30;;;;;;;;;;4961855;28;20471;-81
2024/03/29 05:29:17;;;;;;;0.30;0.30;;;;;;;;;;4979182;28;20060;-79
2024/03/29 05:31:43;;;;;;;0.30;0.20;;;;;;;;;;4979369;28;20508;-82
2024/03/29 05:34:08;;;;;;;0.30;0.30;;;;;;;;;;4997258;28;20188;-81
2024/03/29 05:36:35;;;;;;;1.05;0.40;;;;;;;;;;4987206;28;20058;-81
2024/03/29 05:39:01;;;;;;;0.40;0.30;;;;;;;;;;4961222;28;20069;-81
2024/03/29 05:41:27;;;;;;;0.57;0.57;;;;;;;;;;4977379;28;20050;-81
2024/03/29 05:43:53;;;;;;;1.33;0.30;;;;;;;;;;4975131;28;20059;-80
2024/03/29 05:46:18;;;;;;;1.23;0.30;;;;;;;;;;4995539;28;20104;-80
2024/03/29 05:48:44;;;;;;;1.55;0.50;;;;;;;;;;4960331;28;20130;-80
2024/03/29 05:51:10;;;;;;;0.75;0.20;;;;;;;;;;4978226;28;20070;-80
2024/03/29 05:53:35;;;;;;;1.45;0.30;;;;;;;;;;4977307;28;20046;-81
2024/03/29 05:56:01;;;;;;;1.60;0.17;;;;;;;;;;4975292;28;20054;-81
2024/03/29 05:58:27;;;;;;;0.52;0.32;;;;;;;;;;4960693;28;20054;-81
2024/03/29 06:00:52;;;;;;;2.60;0.40;;;;;;;;;;4961709;28;20069;-80
2024/03/29 06:03:18;;;;;;;0.82;0.55;;;;;;;;;;4960660;28;20054;-80
2024/03/29 06:05:43;;;;;;;0.50;0.50;;;;;;;;;;4976132;28;20050;-80
2024/03/29 06:08:09;;;;;;;0.63;0.40;;;;;;;;;;4960528;28;20053;-79
2024/03/29 06:10:37;;;;;;;0.85;0.60;;;;;;;;;;4976470;28;20062;-79
2024/03/29 06:13:27;;;;;;;0.82;0.50;;;;;;;;;;4991892;28;20077;-81
2024/03/29 06:18:37;;;;;;;0.73;0.50;;;;;;;;;;5002498;28;20054;-82
2024/03/29 06:21:03;;;;;;;1.05;0.40;;;;;;;;;;4963119;28;20129;-79
2024/03/29 06:23:28;;;;;;;1.15;0.60;;;;;;;;;;5009242;28;20053;-80
2024/03/29 06:25:54;;;;;;;0.40;0.30;;;;;;;;;;4976918;28;20050;-81
2024/03/29 06:28:19;;;;;;;0.80;0.35;;;;;;;;;;4981065;28;20057;-82
2024/03/29 06:30:45;;;;;;;1.60;0.35;;;;;;;;;;4983988;28;20050;-81
2024/03/29 06:33:10;;;;;;;1.83;0.50;;;;;;;;;;4973599;28;20062;-81
2024/03/29 06:35:36;;;;;;;0.40;0.40;;;;;;;;;;4995378;28;20055;-80
2024/03/29 06:38:02;;;;;;;0.30;0.30;;;;;;;;;;4968947;28;20120;-82
2024/03/29 06:40:27;;;;;;;0.85;0.70;;;;;;;;;;5010436;28;20059;-81
2024/03/29 06:42:56;;;;;;;0.57;0.45;;;;;;;;;;4964153;28;20047;-84
2024/03/29 06:45:21;;;;;;;0.88;0.60;;;;;;;;;;5001817;28;20105;-81
2024/03/29 06:47:47;;;;;;;0.80;0.60;;;;;;;;;;5014003;28;20334;-78
2024/03/29 06:50:13;;;;;;;0.57;0.40;;;;;;;;;;4981912;28;20074;-78
2024/03/29 06:52:39;;;;;;;1.38;0.68;;;;;;;;;;5011048;28;20051;-81
2024/03/29 06:55:05;;;;;;;0.60;0.60;;;;;;;;;;4967944;28;20054;-82
2024/03/29 06:57:31;;;;;;;2.03;0.60;;;;;;;;;;4990870;28;20093;-79
2024/03/29 06:59:57;;;;;;;0.93;0.50;;;;;;;;;;5001298;28;20109;-81
2024/03/29 07:02:23;;;;;;;0.70;0.50;;;;;;;;;;4986327;28;20054;-81
2024/03/29 07:04:48;;;;;;;1.48;0.50;;;;;;;;;;4994473;28;20471;-82
2024/03/29 07:07:14;;;;;;;0.35;0.35;;;;;;;;;;4999907;28;20050;-80
2024/03/29 07:09:40;;;;;;;1.30;0.60;;;;;;;;;;4964070;28;20133;-79
2024/03/29 07:12:06;;;;;;;0.93;0.50;;;;;;;;;;4974614;28;20058;-80
2024/03/29 07:14:33;;;;;;;1.10;0.65;;;;;;;;;;4981474;28;20067;-78
2024/03/29 07:16:59;;;;;;;1.30;0.63;;;;;;;;;;4962687;28;20571;-78
2024/03/29 07:19:24;;;;;;;0.60;0.40;;;;;;;;;;4976959;28;20054;-78
2024/03/29 07:21:52;;;;;;;1.15;0.73;;;;;;;;;;4975247;28;20096;-78
2024/03/29 07:24:19;;;;;;;0.60;0.40;;;;;;;;;;4976590;28;20062;-77
2024/03/29 07:26:46;;;;;;;2.30;0.40;;;;;;;;;;4976467;28;20512;-77
2024/03/29 07:29:11;;;;;;;1.30;0.50;;;;;;;;;;4961034;28;20046;-78
2024/03/29 07:31:37;;;;;;;1.27;1.17;;;;;;;;;;4960221;28;20089;-78
2024/03/29 07:34:03;;;;;;;0.90;0.70;;;;;;;;;;4966406;28;20523;-78
2024/03/29 07:36:33;;;;;;;2.03;0.90;;;;;;;;;;4982755;28;20061;-79
2024/03/29 07:39:00;;;;;;;1.85;0.60;;;;;;;;;;4990060;28;20070;-79
2024/03/29 07:41:25;;;;;;;0.68;0.35;;;;;;;;;;4996541;28;20518;-78
2024/03/29 07:43:56;;;;;;;0.70;0.50;;;;;;;;;;4979568;28;20177;-78
2024/03/29 07:46:22;;;;;;;2.35;0.60;;;;;;;;;;4962847;28;20109;-78
2024/03/29 07:48:48;;;;;;;1.35;0.45;;;;;;;;;;4979975;28;20051;-77
2024/03/29 07:51:14;;;;;;;1.67;0.52;;;;;;;;;;4994881;28;20046;-77
2024/03/29 07:53:40;;;;;;;2.00;0.60;;;;;;;;;;4958900;28;20165;-78
2024/03/29 07:56:05;;;;;;;3.38;0.82;;;;;;;;;;4979023;28;20138;-78
2024/03/29 07:58:31;;;;;;;2.60;0.70;;;;;;;;;;5009290;28;20481;-78
2024/03/29 08:00:57;;;;;;;1.50;0.98;;;;;;;;;;5005923;28;20129;-79
2024/03/29 08:03:22;;;;;;;2.13;1.20;;;;;;;;;;5006442;28;20050;-78
2024/03/29 08:05:58;;;;;;;1.77;1.30;;;;;;;;;;4999938;28;20059;-78
2024/03/29 08:08:25;;;;;;;2.33;1.50;;;;;;;;;;4991873;28;20071;-78
2024/03/29 08:10:50;;;;;;;3.15;1.25;;;;;;;;;;4959821;28;20709;-79
2024/03/29 08:13:20;;;;;;;3.92;2.60;;;;;;;;;;4975183;28;20083;-78
2024/03/29 08:15:46;;;;;;;2.55;1.77;;;;;;;;;;4991422;28;20058;-78
2024/03/29 08:18:11;;;;;;;2.33;1.48;;;;;;;;;;4960139;28;20423;-81
2024/03/29 08:20:37;;;;;;;6.00;3.47;;;;;;;;;;4959727;28;20526;-78
2024/03/29 08:23:03;;;;;;;3.17;2.50;;;;;;;;;;4994794;28;20062;-81
2024/03/29 08:25:29;;;;;;;3.67;1.58;;;;;;;;;;4963101;28;20129;-79
2024/03/29 08:27:58;;;;;;;1.30;1.00;;;;;;;;;;4991208;28;20078;-79
2024/03/29 08:30:24;;;;;;;1.88;1.02;;;;;;;;;;4959311;28;20046;-80
2024/03/29 08:32:52;;;;;;;4.53;1.00;;;;;;;;;;4959027;28;20066;-79
2024/03/29 08:35:18;;;;;;;1.73;1.20;;;;;;;;;;4958326;28;20050;-79
2024/03/29 08:37:43;;;;;;;3.17;1.08;;;;;;;;;;4958142;28;20567;-79
2024/03/29 08:40:09;;;;;;;1.40;1.13;;;;;;;;;;4974428;28;20660;-79
2024/03/29 08:42:37;;;;;;;2.38;1.20;;;;;;;;;;4973287;28;20606;-79
2024/03/29 08:45:03;;;;;;;2.17;1.17;;;;;;;;;;4957888;28;20416;-79
2024/03/29 08:47:29;;;;;;;1.52;1.08;;;;;;;;;;4982426;28;20504;-78
2024/03/29 08:49:54;;;;;;;1.48;1.13;;;;;;;;;;4984671;28;20117;-79
2024/03/29 08:52:21;;;;;;;1.17;1.02;;;;;;;;;;4974595;28;20062;-82
2024/03/29 08:54:47;;;;;;;1.48;1.00;;;;;;;;;;5001668;28;20054;-81
2024/03/29 08:57:13;;;;;;;2.58;1.15;;;;;;;;;;4975837;28;20030;-82
2024/03/29 08:59:38;;;;;;;2.38;0.90;;;;;;;;;;4987854;28;20030;-83
2024/03/29 09:02:08;;;;;;;2.30;1.30;;;;;;;;;;4969559;28;20057;-80
2024/03/29 09:04:34;;;;;;;1.67;0.98;;;;;;;;;;5002380;28;20046;-79
2024/03/29 09:07:03;;;;;;;1.60;1.10;;;;;;;;;;4982180;28;20050;-80
2024/03/29 09:09:30;;;;;;;2.35;1.25;;;;;;;;;;4978260;28;20046;-81
2024/03/29 09:11:55;;;;;;;1.10;0.90;;;;;;;;;;4995425;28;20049;-80
2024/03/29 09:14:24;;;;;;;1.85;1.05;;;;;;;;;;4999747;28;20046;-80
2024/03/29 09:16:50;;;;;;;2.97;1.23;;;;;;;;;;5001653;28;20101;-82
2024/03/29 09:19:16;;;;;;;3.15;1.08;;;;;;;;;;4984777;28;20058;-81
2024/03/29 09:21:41;;;;;;;3.53;2.15;;;;;;;;;;4997659;28;20054;-81
2024/03/29 09:24:11;;;;;;;3.50;2.95;;;;;;;;;;4999012;28;20057;-81
2024/03/29 09:26:41;;;;;;;6.22;2.70;;;;;;;;;;5005622;28;20077;-80
2024/03/29 09:29:07;;;;;;;3.13;2.00;;;;;;;;;;5007352;28;20053;-81
2024/03/29 09:31:32;;;;;;;3.88;1.92;;;;;;;;;;4950284;28;20575;-80
2024/03/29 09:33:58;;;;;;;3.22;1.70;;;;;;;;;;4961789;28;20105;-80
2024/03/29 09:36:24;;;;;;;3.17;1.75;;;;;;;;;;5004154;28;20046;-79
2024/03/29 09:38:50;;;;;;;3.92;1.25;;;;;;;;;;4998938;28;20069;-81
2024/03/29 09:41:16;;;;;;;25.55;10.15;;;;;;;;;;4989206;28;20053;-79
2024/03/29 09:43:44;;;;;;;15.30;6.93;;;;;;;;;;4962117;28;20054;-80
2024/03/29 09:46:10;;;;;;;3.38;1.70;;;;;;;;;;5002150;28;20057;-80
2024/03/29 09:48:37;;;;;;;1.42;1.10;;;;;;;;;;4981263;28;20050;-80
2024/03/29 09:51:06;;;;;;;1.92;1.17;;;;;;;;;;4995556;28;20057;-80
2024/03/29 09:53:38;;;;;;;2.15;1.00;;;;;;;;;;4990324;28;20046;-81
2024/03/29 09:56:05;;;;;;;2.45;1.25;;;;;;;;;;4993872;28;20053;-81
2024/03/29 09:58:31;;;;;;;1.02;0.80;;;;;;;;;;4969621;28;20112;-80
2024/03/29 10:00:57;;;;;;;2.65;1.70;;;;;;;;;;4987686;28;20061;-81
2024/03/29 10:03:29;;;;;;;3.38;1.38;;;;;;;;;;4958620;28;20051;-81
2024/03/29 10:05:58;;;;;;;2.93;1.97;;;;;;;;;;4990581;28;20061;-81
2024/03/29 10:08:25;;;;;;;3.15;1.63;;;;;;;;;;4972112;28;20308;-80
2024/03/29 10:10:51;;;;;;;3.58;1.55;;;;;;;;;;4991575;28;20042;-81
2024/03/29 10:13:17;;;;;;;2.67;1.50;;;;;;;;;;4993466;28;20081;-81
2024/03/29 10:15:45;;;;;;;3.20;1.50;;;;;;;;;;4967099;28;20043;-81
2024/03/29 10:18:11;;;;;;;4.55;1.50;;;;;;;;;;4991148;28;20463;-81
2024/03/29 10:20:36;;;;;;;2.22;1.67;;;;;;;;;;4969572;28;20046;-82
2024/03/29 10:23:03;;;;;;;4.32;2.38;;;;;;;;;;4984260;28;20230;-82
2024/03/29 10:25:33;;;;;;;4.50;2.53;;;;;;;;;;4968156;28;20066;-81
2024/03/29 10:27:58;;;;;;;3.47;1.67;;;;;;;;;;5001711;28;20054;-81
2024/03/29 10:30:25;;;;;;;4.30;1.63;;;;;;;;;;5001030;28;20413;-82
2024/03/29 10:32:51;;;;;;;4.43;1.40;;;;;;;;;;4963582;28;20074;-82
2024/03/29 10:35:17;;;;;;;2.03;1.20;;;;;;;;;;4995752;28;20051;-81
2024/03/29 10:37:44;;;;;;;1.38;1.10;;;;;;;;;;4988835;28;20051;-81
2024/03/29 10:40:10;;;;;;;1.83;0.90;;;;;;;;;;4959252;28;20054;-82
2024/03/29 10:42:38;;;;;;;2.78;1.35;;;;;;;;;;5010396;28;20022;-82
2024/03/29 10:45:07;;;;;;;1.70;1.23;;;;;;;;;;4990065;28;20049;-81
2024/03/29 10:47:33;;;;;;;2.60;1.15;;;;;;;;;;4980512;28;20042;-84
2024/03/29 10:49:58;;;;;;;1.88;1.20;;;;;;;;;;4989762;28;20042;-81
2024/03/29 10:52:25;;;;;;;2.60;1.50;;;;;;;;;;4988597;28;20042;-81
2024/03/29 10:54:57;;;;;;;1.67;1.17;;;;;;;;;;5004052;28;20035;-82
2024/03/29 10:57:26;;;;;;;2.47;1.80;;;;;;;;;;4969814;28;20037;-83
2024/03/29 10:59:52;;;;;;;2.28;1.60;;;;;;;;;;4990903;28;20046;-82
2024/03/29 11:02:44;;;;;;;2.92;1.27;;;;;;;;;;5006051;28;20054;-81
2024/03/29 11:05:10;;;;;;;1.77;1.33;;;;;;;;;;4981590;28;20050;-81
2024/03/29 11:07:37;;;;;;;4.80;1.35;;;;;;;;;;4957169;28;20061;-81
2024/03/29 11:10:04;;;;;;;2.97;1.50;;;;;;;;;;4961015;28;20050;-81
2024/03/29 11:12:30;;;;;;;1.50;1.17;;;;;;;;;;4989470;28;20050;-81
2024/03/29 11:15:02;;;;;;;2.10;1.30;;;;;;;;;;5009660;28;20050;-81
2024/03/29 11:17:30;;;;;;;1.13;1.05;;;;;;;;;;5005746;28;20049;-80
2024/03/29 11:19:56;;;;;;;2.60;1.60;;;;;;;;;;4989974;28;20521;-80
2024/03/29 11:22:21;;;;;;;1.58;1.25;;;;;;;;;;4992510;28;20059;-81
2024/03/29 11:24:48;;;;;;;2.95;1.25;;;;;;;;;;4994233;28;20050;-80
2024/03/29 11:27:15;;;;;;;1.58;1.38;;;;;;;;;;4995365;28;20077;-81
2024/03/29 11:29:42;;;;;;;2.83;1.90;;;;;;;;;;4987000;28;20066;-80
2024/03/29 11:32:09;;;;;;;2.65;1.40;;;;;;;;;;4986644;28;20049;-81
2024/03/29 11:34:34;;;;;;;3.47;1.85;;;;;;;;;;4990095;28;20057;-80
2024/03/29 11:37:09;;;;;;;2.03;1.50;;;;;;;;;;4969863;28;20050;-80
2024/03/29 11:39:35;;;;;;;2.80;1.65;;;;;;;;;;4992795;28;20054;-79
2024/03/29 11:42:01;;;;;;;2.45;1.17;;;;;;;;;;4961228;28;20065;-80
2024/03/29 11:44:26;;;;;;;1.20;1.10;;;;;;;;;;4992142;28;20046;-82
2024/03/29 11:46:55;;;;;;;1.63;1.10;;;;;;;;;;4983752;28;20042;-80
2024/03/29 11:49:20;;;;;;;2.53;1.48;;;;;;;;;;4969744;28;20612;-80
2024/03/29 11:51:47;;;;;;;5.80;1.50;;;;;;;;;;4964585;28;20145;-82
2024/03/29 11:54:13;;;;;;;2.72;1.33;;;;;;;;;;4987946;28;20058;-81
2024/03/29 11:56:38;;;;;;;3.53;2.05;;;;;;;;;;4964619;28;20082;-82
2024/03/29 11:59:04;;;;;;;1.77;1.40;;;;;;;;;;4994180;28;20066;-83
2024/03/29 12:01:32;;;;;;;1.45;1.00;;;;;;;;;;4961556;28;20082;-83
2024/03/29 12:03:57;;;;;;;1.40;1.30;;;;;;;;;;4982183;28;20050;-78
2024/03/29 12:06:23;;;;;;;2.58;1.23;;;;;;;;;;5006920;28;20065;-79
2024/03/29 12:08:50;;;;;;;1.85;1.20;;;;;;;;;;4983392;28;20030;-81
2024/03/29 12:11:15;;;;;;;4.05;1.35;;;;;;;;;;4978068;28;20067;-81
2024/03/29 12:13:41;;;;;;;1.30;1.08;;;;;;;;;;4977815;28;20093;-82
2024/03/29 12:16:07;;;;;;;1.90;1.33;;;;;;;;;;4985321;28;20053;-80
2024/03/29 12:18:33;;;;;;;3.08;1.27;;;;;;;;;;4998538;28;20087;-80
2024/03/29 12:20:59;;;;;;;1.40;0.90;;;;;;;;;;4960154;28;20497;-80
2024/03/29 12:23:24;;;;;;;1.40;1.10;;;;;;;;;;4980183;28;20825;-79
2024/03/29 12:25:51;;;;;;;1.50;0.90;;;;;;;;;;4949520;28;20069;-79
2024/03/29 12:28:16;;;;;;;1.13;0.70;;;;;;;;;;4998515;28;20046;-79
2024/03/29 12:30:46;;;;;;;1.40;0.77;;;;;;;;;;4995842;28;20591;-79
2024/03/29 12:33:15;;;;;;;0.50;0.50;;;;;;;;;;4981263;28;20049;-78
2024/03/29 12:35:44;;;;;;;0.90;0.50;;;;;;;;;;4983931;28;20050;-78
2024/03/29 12:38:11;;;;;;;0.80;0.50;;;;;;;;;;4974951;28;20100;-78
2024/03/29 12:40:39;;;;;;;0.65;0.45;;;;;;;;;;4999730;28;20054;-78
2024/03/29 12:43:07;;;;;;;1.08;0.75;;;;;;;;;;4984378;28;20058;-78
2024/03/29 12:45:33;;;;;;;1.08;0.70;;;;;;;;;;4974453;28;20058;-78
2024/03/29 12:47:58;;;;;;;0.80;0.47;;;;;;;;;;4981967;28;20057;-78
2024/03/29 12:50:33;;;;;;;0.98;0.80;;;;;;;;;;5003942;28;20551;-78
2024/03/29 12:52:59;;;;;;;0.90;0.60;;;;;;;;;;4992063;28;20051;-78
2024/03/29 12:55:28;;;;;;;2.50;0.70;;;;;;;;;;4980497;28;20050;-78
2024/03/29 12:57:53;;;;;;;0.70;0.70;;;;;;;;;;4962775;28;20097;-78
2024/03/29 13:00:22;;;;;;;1.15;0.90;;;;;;;;;;4997938;28;20081;-79
2024/03/29 13:02:48;;;;;;;3.15;1.48;;;;;;;;;;4983463;28;20057;-79
2024/03/29 13:05:14;;;;;;;1.65;0.80;;;;;;;;;;4950837;28;20051;-79
2024/03/29 13:07:39;;;;;;;2.00;0.80;;;;;;;;;;4982328;28;20046;-78
2024/03/29 13:10:23;;;;;;;0.80;0.70;;;;;;;;;;4960290;28;20050;-79
2024/03/29 13:12:52;;;;;;;1.10;0.70;;;;;;;;;;4993554;28;20046;-78
2024/03/29 13:15:19;;;;;;;2.10;0.90;;;;;;;;;;4958577;28;20065;-79
2024/03/29 13:17:44;;;;;;;0.88;0.75;;;;;;;;;;4992590;28;20061;-79
2024/03/29 13:20:11;;;;;;;1.20;1.00;;;;;;;;;;5003635;28;20061;-79
2024/03/29 13:22:37;;;;;;;0.52;0.50;;;;;;;;;;4965217;28;20061;-78
2024/03/29 13:25:04;;;;;;;1.02;0.63;;;;;;;;;;5006749;28;20058;-79
2024/03/29 13:27:30;;;;;;;1.90;0.55;;;;;;;;;;4956867;28;20057;-79
2024/03/29 13:29:57;;;;;;;0.80;0.60;;;;;;;;;;4981894;28;20077;-81
2024/03/29 13:32:22;;;;;;;0.90;0.60;;;;;;;;;;5003105;28;20045;-80
2024/03/29 13:34:48;;;;;;;0.75;0.50;;;;;;;;;;4960666;28;20050;-80
2024/03/29 13:37:14;;;;;;;1.48;0.47;;;;;;;;;;5000836;28;20069;-79
2024/03/29 13:39:39;;;;;;;0.90;0.57;;;;;;;;;;4987529;28;20054;-80
2024/03/29 13:42:05;;;;;;;5.05;0.60;;;;;;;;;;4964018;28;20130;-80
2024/03/29 13:44:31;;;;;;;0.43;0.40;;;;;;;;;;5003158;28;20499;-79
2024/03/29 13:46:58;;;;;;;0.82;0.40;;;;;;;;;;4986754;28;20155;-79
2024/03/29 13:49:25;;;;;;;1.95;0.75;;;;;;;;;;4987968;28;20074;-80
2024/03/29 13:51:50;;;;;;;2.10;0.50;;;;;;;;;;4976433;28;20050;-80
2024/03/29 13:54:16;;;;;;;1.73;0.68;;;;;;;;;;4963326;28;20053;-80
2024/03/29 13:56:41;;;;;;;0.47;0.40;;;;;;;;;;4985878;28;20065;-79
2024/03/29 13:59:08;;;;;;;2.60;0.40;;;;;;;;;;4962594;28;20109;-80
2024/03/29 14:01:33;;;;;;;3.40;0.57;;;;;;;;;;4955258;28;20133;-80
2024/03/29 14:03:59;;;;;;;1.75;0.60;;;;;;;;;;4980647;28;20049;-80
2024/03/29 14:06:24;;;;;;;1.38;0.50;;;;;;;;;;4990306;28;20050;-80
2024/03/29 14:08:50;;;;;;;0.70;0.40;;;;;;;;;;4989281;28;20046;-80
2024/03/29 14:11:18;;;;;;;0.68;0.38;;;;;;;;;;4989635;28;20080;-80
2024/03/29 14:13:45;;;;;;;1.45;0.73;;;;;;;;;;5000792;28;20046;-82
2024/03/29 14:16:11;;;;;;;0.63;0.50;;;;;;;;;;4979251;28;20524;-82
2024/03/29 14:18:37;;;;;;;0.75;0.50;;;;;;;;;;4989297;28;20054;-79
2024/03/29 14:21:02;;;;;;;5.22;0.88;;;;;;;;;;4988187;28;20073;-79
2024/03/29 14:23:28;;;;;;;0.50;0.50;;;;;;;;;;4990483;28;20068;-79
2024/03/29 14:25:54;;;;;;;1.38;0.80;;;;;;;;;;4975922;28;20582;-79
2024/03/29 14:28:19;;;;;;;0.88;0.60;;;;;;;;;;4959808;28;20462;-80
2024/03/29 14:30:45;;;;;;;1.13;1.02;;;;;;;;;;4957374;28;20073;-79
2024/03/29 14:33:10;;;;;;;0.98;0.68;;;;;;;;;;4997931;28;20140;-79
2024/03/29 14:35:36;;;;;;;2.67;0.68;;;;;;;;;;4952138;28;20054;-79
2024/03/29 14:38:01;;;;;;;1.20;0.60;;;;;;;;;;4959979;28;20518;-79
2024/03/29 14:40:27;;;;;;;1.27;0.70;;;;;;;;;;4948134;28;20058;-79
2024/03/29 14:42:57;;;;;;;2.00;0.60;;;;;;;;;;5002540;28;20045;-79
2024/03/29 14:45:23;;;;;;;0.75;0.63;;;;;;;;;;4949186;28;20050;-79